Isle Of Innisfree — EIBW — position and weather

sailwx.info

Track history (hours):
 
Tides and Currents Weather Stations Pressure Air Temp Water Temp Dewpoint Dewpoint Depression Visibility Wind Speed Wind Dir Waves Ship Positions

Isle Of Innisfree

Operator: Irish Ferries

Last reported at 2019-Dec-08 10:00 UTC. Time now 2019-Dec-08 10:26 UTC.
Position N 54°38' W 008°26'.

Length 36 m; draft 6.6 m.

Type: Fishing. MMSI: 250102800.

Date/timePositionNaut miles runAvg speedWind from/ knotsBaromVisibWave heightAir tempDewpointWater temp
2019-Dec-08 10:00N 54°38' W 008°26'0 0.0
2019-Dec-08 08:53N 54°38' W 008°26'0 0.0
2019-Dec-08 03:29N 54°38' W 008°26'0 0.0
2019-Dec-08 02:55N 54°38' W 008°26'0 0.0
2019-Dec-08 02:26N 54°38' W 008°26'0 0.0
2019-Dec-08 01:28N 54°38' W 008°26'0 0.0
2019-Dec-07 23:59N 54°38' W 008°26'0 0.0
2019-Dec-07 23:28N 54°38' W 008°26'0 0.0
2019-Dec-07 21:26N 54°38' W 008°26'0 0.0
2019-Dec-07 20:30N 54°38' W 008°26'0 0.0
2019-Dec-07 15:28N 54°38' W 008°26'0 0.0
2019-Dec-07 14:22N 54°38' W 008°26'0 0.0
2019-Dec-07 13:56N 54°38' W 008°26'0 0.0
2019-Dec-07 10:28N 54°38' W 008°26'0 0.0
2019-Dec-07 09:30N 54°38' W 008°26'0 0.0
2019-Dec-07 08:27N 54°38' W 008°26'0 0.0
2019-Dec-07 07:00N 54°38' W 008°26'0 0.0
2019-Dec-07 06:26N 54°38' W 008°26'0 0.0
2019-Dec-07 04:29N 54°38' W 008°26'0 0.0
2019-Dec-07 02:54N 54°38' W 008°26'0 0.0
2019-Dec-07 00:56N 54°38' W 008°26'0 0.0
2019-Dec-06 23:57N 54°38' W 008°26'0 0.0
2019-Dec-06 23:28N 54°38' W 008°26'0 0.0
2019-Dec-06 21:27N 54°38' W 008°26'0 0.0
2019-Dec-06 20:56N 54°38' W 008°26'0 0.0
2019-Dec-06 19:55N 54°38' W 008°26'0 0.0
2019-Dec-06 19:27N 54°38' W 008°26'0 0.0
2019-Dec-06 17:56N 54°38' W 008°26'0 0.0
2019-Dec-06 16:57N 54°38' W 008°26'0 0.0
2019-Dec-06 15:57N 54°38' W 008°26'0 0.0
2019-Dec-06 14:28N 54°38' W 008°26'0 0.0
2019-Dec-06 13:59N 54°38' W 008°26'0 0.0
2019-Dec-06 12:58N 54°38' W 008°26'0 0.0
2019-Dec-06 12:30N 54°38' W 008°26'0 0.0
2019-Dec-06 11:58N 54°38' W 008°26'0 0.0
2019-Dec-06 11:00N 54°38' W 008°26'0 0.0
2019-Dec-06 07:00N 54°38' W 008°26'0 0.0
2019-Dec-06 06:28N 54°38' W 008°26'0 0.0
2019-Dec-06 04:28N 54°38' W 008°26'0 0.0
2019-Dec-06 02:00N 54°38' W 008°26'0 0.0
2019-Dec-06 01:26N 54°38' W 008°26'0 0.0
2019-Dec-05 22:26N 54°38' W 008°26'0 0.0
2019-Dec-05 19:29N 54°38' W 008°26'0 0.0
2019-Dec-05 18:27N 54°38' W 008°26'0 0.0
2019-Dec-05 17:30N 54°38' W 008°26'0 0.0
2019-Dec-05 16:27N 54°38' W 008°26'0 0.0
2019-Dec-05 15:29N 54°38' W 008°26'0 0.0
2019-Dec-05 13:27N 54°38' W 008°26'0 0.0
2019-Dec-05 12:59N 54°38' W 008°26'0 0.0
2019-Dec-05 08:59N 54°38' W 008°26'0 0.0
2019-Dec-05 05:47N 54°38' W 008°26'0 0.0
2019-Dec-05 05:26N 54°38' W 008°26'0 0.0
2019-Dec-05 04:57N 54°38' W 008°26'0 0.0
2019-Dec-05 01:58N 54°38' W 008°26'0 0.0
2019-Dec-05 00:56N 54°38' W 008°26'0 0.0
2019-Dec-04 18:57N 54°38' W 008°26'0 0.0
2019-Dec-04 16:59N 54°38' W 008°26'0 0.0
2019-Dec-04 11:58N 54°38' W 008°26'0 0.0
2019-Dec-04 09:30N 54°38' W 008°26'0 0.3
2019-Dec-04 08:30N 54°38' W 008°26'65 5.0
2019-Dec-03 19:38N 55°15' W 006°54'18 1.4
2019-Dec-03 07:27N 55°02' W 007°16'0 0.0
2019-Dec-03 06:14N 55°02' W 007°16'6 8.0
2019-Dec-03 05:26N 55°08' W 007°10'  
Track history (hours):
 
Tides and Currents Weather Stations Pressure Air Temp Water Temp Dewpoint Dewpoint Depression Visibility Wind Speed Wind Dir Waves Ship Positions

Isle Of Innisfree

Operator: Irish Ferries

Last reported at 2019-Dec-08 10:00 UTC. Time now 2019-Dec-08 10:26 UTC.
Position N 54°38' W 008°26'.

Length 36 m; draft 6.6 m.

Type: Fishing. MMSI: 250102800.

Date/timePositionNaut miles runAvg speedWind from/ knotsBaromVisibWave heightAir tempDewpointWater temp
2019-Dec-08 10:00N 54°38' W 008°26'0 0.0
2019-Dec-08 08:53N 54°38' W 008°26'0 0.0
2019-Dec-08 03:29N 54°38' W 008°26'0 0.0
2019-Dec-08 02:55N 54°38' W 008°26'0 0.0
2019-Dec-08 02:26N 54°38' W 008°26'0 0.0
2019-Dec-08 01:28N 54°38' W 008°26'0 0.0
2019-Dec-07 23:59N 54°38' W 008°26'0 0.0
2019-Dec-07 23:28N 54°38' W 008°26'0 0.0
2019-Dec-07 21:26N 54°38' W 008°26'0 0.0
2019-Dec-07 20:30N 54°38' W 008°26'0 0.0
2019-Dec-07 15:28N 54°38' W 008°26'0 0.0
2019-Dec-07 14:22N 54°38' W 008°26'0 0.0
2019-Dec-07 13:56N 54°38' W 008°26'0 0.0
2019-Dec-07 10:28N 54°38' W 008°26'0 0.0
2019-Dec-07 09:30N 54°38' W 008°26'0 0.0
2019-Dec-07 08:27N 54°38' W 008°26'0 0.0
2019-Dec-07 07:00N 54°38' W 008°26'0 0.0
2019-Dec-07 06:26N 54°38' W 008°26'0 0.0
2019-Dec-07 04:29N 54°38' W 008°26'0 0.0
2019-Dec-07 02:54N 54°38' W 008°26'0 0.0
2019-Dec-07 00:56N 54°38' W 008°26'0 0.0
2019-Dec-06 23:57N 54°38' W 008°26'0 0.0
2019-Dec-06 23:28N 54°38' W 008°26'0 0.0
2019-Dec-06 21:27N 54°38' W 008°26'0 0.0
2019-Dec-06 20:56N 54°38' W 008°26'0 0.0
2019-Dec-06 19:55N 54°38' W 008°26'0 0.0
2019-Dec-06 19:27N 54°38' W 008°26'0 0.0
2019-Dec-06 17:56N 54°38' W 008°26'0 0.0
2019-Dec-06 16:57N 54°38' W 008°26'0 0.0
2019-Dec-06 15:57N 54°38' W 008°26'0 0.0
2019-Dec-06 14:28N 54°38' W 008°26'0 0.0
2019-Dec-06 13:59N 54°38' W 008°26'0 0.0
2019-Dec-06 12:58N 54°38' W 008°26'0 0.0
2019-Dec-06 12:30N 54°38' W 008°26'0 0.0
2019-Dec-06 11:58N 54°38' W 008°26'0 0.0
2019-Dec-06 11:00N 54°38' W 008°26'0 0.0
2019-Dec-06 07:00N 54°38' W 008°26'0 0.0
2019-Dec-06 06:28N 54°38' W 008°26'0 0.0
2019-Dec-06 04:28N 54°38' W 008°26'0 0.0
2019-Dec-06 02:00N 54°38' W 008°26'0 0.0
2019-Dec-06 01:26N 54°38' W 008°26'0 0.0
2019-Dec-05 22:26N 54°38' W 008°26'0 0.0
2019-Dec-05 19:29N 54°38' W 008°26'0 0.0
2019-Dec-05 18:27N 54°38' W 008°26'0 0.0
2019-Dec-05 17:30N 54°38' W 008°26'0 0.0
2019-Dec-05 16:27N 54°38' W 008°26'0 0.0
2019-Dec-05 15:29N 54°38' W 008°26'0 0.0
2019-Dec-05 13:27N 54°38' W 008°26'0 0.0
2019-Dec-05 12:59N 54°38' W 008°26'0 0.0
2019-Dec-05 08:59N 54°38' W 008°26'0 0.0
2019-Dec-05 05:47N 54°38' W 008°26'0 0.0
2019-Dec-05 05:26N 54°38' W 008°26'0 0.0
2019-Dec-05 04:57N 54°38' W 008°26'0 0.0
2019-Dec-05 01:58N 54°38' W 008°26'0 0.0
2019-Dec-05 00:56N 54°38' W 008°26'0 0.0
2019-Dec-04 18:57N 54°38' W 008°26'0 0.0
2019-Dec-04 16:59N 54°38' W 008°26'0 0.0
2019-Dec-04 11:58N 54°38' W 008°26'0 0.0
2019-Dec-04 09:30N 54°38' W 008°26'0 0.3
2019-Dec-04 08:30N 54°38' W 008°26'65 5.0
2019-Dec-03 19:38N 55°15' W 006°54'18 1.4
2019-Dec-03 07:27N 55°02' W 007°16'0 0.0
2019-Dec-03 06:14N 55°02' W 007°16'6 8.0
2019-Dec-03 05:26N 55°08' W 007°10'  

Dump ship's entire track history